Harbor Hills, New York
Current Conditions -  °F | °C
As of 1:51 PM on Friday 31 Oct 2014 (Local Time) from KLGA Reporting Station
Overcast Overcast  
Wind Chill: 54°   Ceiling: 6000
Heat Index: 54°   Visibility: 10mi
Dew Point: 42°   Wind: 14mph
Humidity: 64%   Direction: 40°NE
Pressure: 29.93"   Gusts: NA
Location:  40.7988°N, 73.7332°W
Report Text: KLGA 311751Z 04012KT 10SM FEW025 OVC060 12/06 A2993 RMK AO2 SLP133 T01220056 10122 20078 56023
Loading
Personal Weather Stations






























Interactive Weather Map
Tropical Storm Tracking
New forecast layout! Learn more

10-Day Weather Forecast

Advertisements
Track Severe Weather on mobile